sensor_id;sensor_type;location;lat;lon;timestamp;pressure;altitude;pressure_sealevel;temperature;humidity
56006;BME280;41888;44.696;10.522;2023-04-16T00:00:52;100024.03;;;8.52;100.00
56006;BME280;41888;44.696;10.522;2023-04-16T00:03:18;100030.22;;;8.72;100.00
56006;BME280;41888;44.696;10.522;2023-04-16T00:05:44;100025.72;;;8.66;100.00
56006;BME280;41888;44.696;10.522;2023-04-16T00:08:10;100030.19;;;8.79;100.00
56006;BME280;41888;44.696;10.522;2023-04-16T00:10:37;100027.78;;;8.77;100.00
56006;BME280;41888;44.696;10.522;2023-04-16T00:13:03;100029.19;;;8.67;100.00
56006;BME280;41888;44.696;10.522;2023-04-16T00:15:29;100026.09;;;8.63;100.00
56006;BME280;41888;44.696;10.522;2023-04-16T00:17:55;100020.00;;;8.69;100.00
56006;BME280;41888;44.696;10.522;2023-04-16T00:20:21;100019.38;;;8.67;100.00
56006;BME280;41888;44.696;10.522;2023-04-16T00:22:48;100026.31;;;8.68;100.00
56006;BME280;41888;44.696;10.522;2023-04-16T00:25:14;100012.63;;;8.58;100.00
56006;BME280;41888;44.696;10.522;2023-04-16T00:27:40;100017.75;;;8.60;100.00
56006;BME280;41888;44.696;10.522;2023-04-16T00:30:06;100014.06;;;8.54;100.00
56006;BME280;41888;44.696;10.522;2023-04-16T00:32:33;100012.66;;;8.71;100.00
56006;BME280;41888;44.696;10.522;2023-04-16T00:34:59;100018.97;;;8.64;100.00
56006;BME280;41888;44.696;10.522;2023-04-16T00:37:25;100017.13;;;8.58;100.00
56006;BME280;41888;44.696;10.522;2023-04-16T00:39:51;100020.78;;;8.57;100.00
56006;BME280;41888;44.696;10.522;2023-04-16T00:42:18;100020.78;;;8.63;100.00
56006;BME280;41888;44.696;10.522;2023-04-16T00:44:44;100018.78;;;8.65;100.00
56006;BME280;41888;44.696;10.522;2023-04-16T00:47:10;100018.38;;;8.62;100.00
56006;BME280;41888;44.696;10.522;2023-04-16T00:49:37;100012.66;;;8.71;100.00
56006;BME280;41888;44.696;10.522;2023-04-16T00:52:03;100024.47;;;8.69;100.00
56006;BME280;41888;44.696;10.522;2023-04-16T00:54:30;100021.63;;;8.83;100.00
56006;BME280;41888;44.696;10.522;2023-04-16T00:56:58;100025.31;;;8.82;100.00
56006;BME280;41888;44.696;10.522;2023-04-16T00:59:25;100021.63;;;8.83;100.00
56006;BME280;41888;44.696;10.522;2023-04-16T01:01:51;100021.63;;;8.70;100.00
56006;BME280;41888;44.696;10.522;2023-04-16T01:04:17;100016.94;;;8.72;100.00
56006;BME280;41888;44.696;10.522;2023-04-16T01:06:43;100006.94;;;8.61;100.00
56006;BME280;41888;44.696;10.522;2023-04-16T01:09:10;100001.59;;;8.48;100.00
56006;BME280;41888;44.696;10.522;2023-04-16T01:11:36;100000.34;;;8.37;100.00
56006;BME280;41888;44.696;10.522;2023-04-16T01:14:03;100004.25;;;8.48;100.00
56006;BME280;41888;44.696;10.522;2023-04-16T01:16:29;100005.28;;;8.40;100.00
56006;BME280;41888;44.696;10.522;2023-04-16T01:18:55;100007.94;;;8.54;100.00
56006;BME280;41888;44.696;10.522;2023-04-16T01:21:21;100012.22;;;8.48;100.00
56006;BME280;41888;44.696;10.522;2023-04-16T01:23:48;100017.13;;;8.58;100.00
56006;BME280;41888;44.696;10.522;2023-04-16T01:26:14;100021.41;;;8.65;100.00
56006;BME280;41888;44.696;10.522;2023-04-16T01:28:40;100013.69;;;8.70;100.00
56006;BME280;41888;44.696;10.522;2023-04-16T01:31:07;100012.22;;;8.68;100.00
56006;BME280;41888;44.696;10.522;2023-04-16T01:33:33;100021.00;;;8.68;100.00
56006;BME280;41888;44.696;10.522;2023-04-16T01:35:59;100011.41;;;8.67;100.00
56006;BME280;41888;44.696;10.522;2023-04-16T01:38:25;100012.81;;;8.57;100.00
56006;BME280;41888;44.696;10.522;2023-04-16T01:40:56;100017.53;;;8.55;100.00
56006;BME280;41888;44.696;10.522;2023-04-16T01:43:25;100016.09;;;8.52;100.00
56006;BME280;41888;44.696;10.522;2023-04-16T01:45:53;100019.56;;;8.53;100.00
56006;BME280;41888;44.696;10.522;2023-04-16T01:48:24;100012.78;;;8.37;100.00
56006;BME280;41888;44.696;10.522;2023-04-16T01:50:50;100022.34;;;8.25;100.00
56006;BME280;41888;44.696;10.522;2023-04-16T01:53:16;100018.84;;;8.18;100.00
56006;BME280;41888;44.696;10.522;2023-04-16T01:55:43;100015.31;;;8.04;100.00
56006;BME280;41888;44.696;10.522;2023-04-16T01:58:09;100021.41;;;7.98;100.00
56006;BME280;41888;44.696;10.522;2023-04-16T02:00:36;100021.00;;;8.01;100.00
56006;BME280;41888;44.696;10.522;2023-04-16T02:03:02;100022.69;;;8.09;100.00
56006;BME280;41888;44.696;10.522;2023-04-16T02:05:28;100025.66;;;7.99;100.00
56006;BME280;41888;44.696;10.522;2023-04-16T02:07:54;100027.50;;;7.92;100.00
56006;BME280;41888;44.696;10.522;2023-04-16T02:10:20;100027.63;;;7.77;100.00
56006;BME280;41888;44.696;10.522;2023-04-16T02:12:47;100020.00;;;7.61;100.00
56006;BME280;41888;44.696;10.522;2023-04-16T02:15:13;100024.44;;;7.54;100.00
56006;BME280;41888;44.696;10.522;2023-04-16T02:17:40;100020.09;;;7.46;100.00
56006;BME280;41888;44.696;10.522;2023-04-16T02:20:07;100024.94;;;7.36;100.00
56006;BME280;41888;44.696;10.522;2023-04-16T02:22:35;100020.16;;;7.18;100.00
56006;BME280;41888;44.696;10.522;2023-04-16T02:25:01;100026.16;;;7.06;100.00
56006;BME280;41888;44.696;10.522;2023-04-16T02:27:27;100024.03;;;7.22;100.00
56006;BME280;41888;44.696;10.522;2023-04-16T02:29:53;100015.34;;;7.29;100.00
56006;BME280;41888;44.696;10.522;2023-04-16T02:32:19;100016.56;;;7.33;100.00
56006;BME280;41888;44.696;10.522;2023-04-16T02:34:45;100028.56;;;7.29;100.00
56006;BME280;41888;44.696;10.522;2023-04-16T02:37:12;100024.69;;;7.31;100.00
56006;BME280;41888;44.696;10.522;2023-04-16T02:39:40;100021.09;;;7.39;100.00
56006;BME280;41888;44.696;10.522;2023-04-16T02:42:06;100019.91;;;7.48;100.00
56006;BME280;41888;44.696;10.522;2023-04-16T02:44:32;100032.03;;;7.29;100.00
56006;BME280;41888;44.696;10.522;2023-04-16T02:46:58;100023.75;;;7.39;100.00
56006;BME280;41888;44.696;10.522;2023-04-16T02:49:24;100018.59;;;7.31;100.00
56006;BME280;41888;44.696;10.522;2023-04-16T02:51:50;100025.16;;;7.35;100.00
56006;BME280;41888;44.696;10.522;2023-04-16T02:54:16;100018.78;;;7.29;100.00
56006;BME280;41888;44.696;10.522;2023-04-16T02:56:43;100022.75;;;7.40;100.00
56006;BME280;41888;44.696;10.522;2023-04-16T02:59:10;100017.41;;;7.33;100.00
56006;BME280;41888;44.696;10.522;2023-04-16T03:01:36;100016.19;;;7.36;100.00
56006;BME280;41888;44.696;10.522;2023-04-16T03:04:03;100026.75;;;7.29;100.00
56006;BME280;41888;44.696;10.522;2023-04-16T03:06:29;100019.75;;;7.21;100.00
56006;BME280;41888;44.696;10.522;2023-04-16T03:08:56;100018.63;;;7.09;100.00
56006;BME280;41888;44.696;10.522;2023-04-16T03:11:22;100021.00;;;7.26;100.00
56006;BME280;41888;44.696;10.522;2023-04-16T03:13:49;100022.16;;;7.16;100.00
56006;BME280;41888;44.696;10.522;2023-04-16T03:16:15;100016.22;;;7.14;100.00
56006;BME280;41888;44.696;10.522;2023-04-16T03:18:41;100024.84;;;6.95;100.00
56006;BME280;41888;44.696;10.522;2023-04-16T03:21:07;100034.41;;;6.96;100.00
56006;BME280;41888;44.696;10.522;2023-04-16T03:23:33;100039.88;;;6.95;100.00
56006;BME280;41888;44.696;10.522;2023-04-16T03:26:01;100036.50;;;6.79;100.00
56006;BME280;41888;44.696;10.522;2023-04-16T03:28:27;100051.69;;;6.92;100.00
56006;BME280;41888;44.696;10.522;2023-04-16T03:30:53;100044.84;;;7.04;100.00
56006;BME280;41888;44.696;10.522;2023-04-16T03:33:20;100054.56;;;6.97;100.00
56006;BME280;41888;44.696;10.522;2023-04-16T03:35:46;100052.78;;;6.83;100.00
56006;BME280;41888;44.696;10.522;2023-04-16T03:38:19;100056.06;;;6.85;100.00
56006;BME280;41888;44.696;10.522;2023-04-16T03:40:45;100064.19;;;6.84;100.00
56006;BME280;41888;44.696;10.522;2023-04-16T03:43:11;100063.59;;;6.82;100.00
56006;BME280;41888;44.696;10.522;2023-04-16T03:45:43;100071.63;;;6.73;100.00
56006;BME280;41888;44.696;10.522;2023-04-16T03:48:10;100073.09;;;6.76;100.00
56006;BME280;41888;44.696;10.522;2023-04-16T03:50:36;100069.81;;;6.74;100.00
56006;BME280;41888;44.696;10.522;2023-04-16T03:53:02;100074.44;;;6.72;100.00
56006;BME280;41888;44.696;10.522;2023-04-16T03:55:28;100079.88;;;6.64;100.00
56006;BME280;41888;44.696;10.522;2023-04-16T03:57:54;100077.47;;;6.69;100.00
56006;BME280;41888;44.696;10.522;2023-04-16T04:00:21;100071.50;;;6.60;100.00
56006;BME280;41888;44.696;10.522;2023-04-16T04:02:47;100076.59;;;6.62;100.00
56006;BME280;41888;44.696;10.522;2023-04-16T04:05:13;100076.81;;;6.46;100.00
56006;BME280;41888;44.696;10.522;2023-04-16T04:07:39;100080.28;;;6.46;100.00
56006;BME280;41888;44.696;10.522;2023-04-16T04:10:06;100076.41;;;6.27;100.00
56006;BME280;41888;44.696;10.522;2023-04-16T04:12:32;100083.41;;;6.35;100.00
56006;BME280;41888;44.696;10.522;2023-04-16T04:14:58;100080.69;;;6.28;100.00
56006;BME280;41888;44.696;10.522;2023-04-16T04:17:24;100075.41;;;6.28;100.00
56006;BME280;41888;44.696;10.522;2023-04-16T04:19:50;100081.97;;;6.32;100.00
56006;BME280;41888;44.696;10.522;2023-04-16T04:22:18;100098.25;;;6.36;100.00
56006;BME280;41888;44.696;10.522;2023-04-16T04:24:44;100092.09;;;6.29;100.00
56006;BME280;41888;44.696;10.522;2023-04-16T04:27:11;100095.53;;;6.29;100.00
56006;BME280;41888;44.696;10.522;2023-04-16T04:29:37;100099.50;;;6.40;100.00
56006;BME280;41888;44.696;10.522;2023-04-16T04:32:03;100101.47;;;6.31;100.00
56006;BME280;41888;44.696;10.522;2023-04-16T04:34:29;100100.63;;;6.31;100.00
56006;BME280;41888;44.696;10.522;2023-04-16T04:36:55;100105.75;;;6.03;100.00
56006;BME280;41888;44.696;10.522;2023-04-16T04:39:21;100102.59;;;6.08;100.00
56006;BME280;41888;44.696;10.522;2023-04-16T04:41:48;100112.59;;;6.12;100.00
56006;BME280;41888;44.696;10.522;2023-04-16T04:44:14;100120.16;;;6.15;100.00
56006;BME280;41888;44.696;10.522;2023-04-16T04:46:40;100114.03;;;6.29;100.00
56006;BME280;41888;44.696;10.522;2023-04-16T04:49:06;100123.25;;;6.33;100.00
56006;BME280;41888;44.696;10.522;2023-04-16T04:51:33;100122.03;;;6.36;100.00
56006;BME280;41888;44.696;10.522;2023-04-16T04:53:59;100125.69;;;6.35;100.00
56006;BME280;41888;44.696;10.522;2023-04-16T04:56:25;100135.59;;;7.05;100.00
56006;BME280;41888;44.696;10.522;2023-04-16T04:58:51;100136.16;;;7.71;100.00
56006;BME280;41888;44.696;10.522;2023-04-16T05:01:18;100145.13;;;8.04;100.00
56006;BME280;41888;44.696;10.522;2023-04-16T05:03:44;100142.41;;;8.66;100.00
56006;BME280;41888;44.696;10.522;2023-04-16T05:06:10;100147.00;;;9.12;100.00
56006;BME280;41888;44.696;10.522;2023-04-16T05:08:36;100148.84;;;9.77;100.00
56006;BME280;41888;44.696;10.522;2023-04-16T05:11:02;100149.19;;;10.13;100.00
56006;BME280;41888;44.696;10.522;2023-04-16T05:13:28;100156.66;;;10.56;100.00
56006;BME280;41888;44.696;10.522;2023-04-16T05:15:54;100153.19;;;10.93;100.00
56006;BME280;41888;44.696;10.522;2023-04-16T05:18:21;100149.19;;;11.65;100.00
56006;BME280;41888;44.696;10.522;2023-04-16T05:20:47;100159.06;;;12.08;100.00
56006;BME280;41888;44.696;10.522;2023-04-16T05:23:13;100163.75;;;13.38;100.00
56006;BME280;41888;44.696;10.522;2023-04-16T05:25:40;100167.19;;;13.57;95.82
56006;BME280;41888;44.696;10.522;2023-04-16T05:28:06;100173.81;;;13.78;90.36
56006;BME280;41888;44.696;10.522;2023-04-16T05:30:32;100174.97;;;13.59;96.46
56006;BME280;41888;44.696;10.522;2023-04-16T05:32:59;100176.16;;;13.98;94.93
56006;BME280;41888;44.696;10.522;2023-04-16T05:35:25;100177.19;;;14.08;95.30
56006;BME280;41888;44.696;10.522;2023-04-16T05:37:51;100177.72;;;14.68;94.19
56006;BME280;41888;44.696;10.522;2023-04-16T05:40:17;100180.19;;;14.58;92.14
56006;BME280;41888;44.696;10.522;2023-04-16T05:42:44;100193.28;;;14.71;93.00
56006;BME280;41888;44.696;10.522;2023-04-16T05:45:10;100194.28;;;14.94;92.95
56006;BME280;41888;44.696;10.522;2023-04-16T05:47:36;100193.22;;;15.51;90.31
56006;BME280;41888;44.696;10.522;2023-04-16T05:50:02;100196.53;;;17.12;81.00
56006;BME280;41888;44.696;10.522;2023-04-16T05:52:29;100201.91;;;18.45;74.48
56006;BME280;41888;44.696;10.522;2023-04-16T05:54:55;100205.94;;;19.20;69.48
56006;BME280;41888;44.696;10.522;2023-04-16T05:57:21;100208.66;;;18.52;70.90
56006;BME280;41888;44.696;10.522;2023-04-16T05:59:47;100207.72;;;18.27;70.63
56006;BME280;41888;44.696;10.522;2023-04-16T06:02:13;100224.47;;;18.86;68.63
56006;BME280;41888;44.696;10.522;2023-04-16T06:04:39;100220.16;;;18.85;69.58
56006;BME280;41888;44.696;10.522;2023-04-16T06:07:06;100222.69;;;19.27;68.21
56006;BME280;41888;44.696;10.522;2023-04-16T06:09:32;100225.47;;;19.52;67.01
56006;BME280;41888;44.696;10.522;2023-04-16T06:11:59;100224.94;;;19.50;67.43
56006;BME280;41888;44.696;10.522;2023-04-16T06:14:25;100221.41;;;20.05;65.09
56006;BME280;41888;44.696;10.522;2023-04-16T06:16:52;100229.63;;;20.80;62.30
56006;BME280;41888;44.696;10.522;2023-04-16T06:19:18;100225.91;;;22.55;55.45
56006;BME280;41888;44.696;10.522;2023-04-16T06:21:44;100230.00;;;23.19;52.43
56006;BME280;41888;44.696;10.522;2023-04-16T06:24:10;100238.69;;;23.91;49.13
56006;BME280;41888;44.696;10.522;2023-04-16T06:26:38;100239.88;;;22.91;50.37
56006;BME280;41888;44.696;10.522;2023-04-16T06:29:04;100228.00;;;23.43;48.53
56006;BME280;41888;44.696;10.522;2023-04-16T06:31:30;100235.53;;;22.90;49.47
56006;BME280;41888;44.696;10.522;2023-04-16T06:33:56;100234.69;;;23.13;49.21
56006;BME280;41888;44.696;10.522;2023-04-16T06:36:23;100234.13;;;23.54;48.31
56006;BME280;41888;44.696;10.522;2023-04-16T06:38:49;100240.00;;;22.81;49.19
56006;BME280;41888;44.696;10.522;2023-04-16T06:41:15;100240.47;;;22.59;49.43
56006;BME280;41888;44.696;10.522;2023-04-16T06:43:41;100236.03;;;22.45;49.42
56006;BME280;41888;44.696;10.522;2023-04-16T06:46:08;100241.00;;;21.75;51.30
56006;BME280;41888;44.696;10.522;2023-04-16T06:48:34;100237.94;;;22.44;50.23
56006;BME280;41888;44.696;10.522;2023-04-16T06:51:01;100235.94;;;20.55;54.94
56006;BME280;41888;44.696;10.522;2023-04-16T06:53:27;100244.38;;;20.18;57.90
56006;BME280;41888;44.696;10.522;2023-04-16T06:55:53;100234.94;;;19.80;60.46
56006;BME280;41888;44.696;10.522;2023-04-16T06:58:19;100233.47;;;19.17;62.71
56006;BME280;41888;44.696;10.522;2023-04-16T07:00:47;100230.38;;;18.83;65.05
56006;BME280;41888;44.696;10.522;2023-04-16T07:03:13;100231.66;;;18.65;66.60
56006;BME280;41888;44.696;10.522;2023-04-16T07:05:39;100225.28;;;18.34;69.19
56006;BME280;41888;44.696;10.522;2023-04-16T07:08:06;100225.72;;;18.21;69.22
56006;BME280;41888;44.696;10.522;2023-04-16T07:10:32;100220.06;;;18.18;70.88
56006;BME280;41888;44.696;10.522;2023-04-16T07:12:58;100226.97;;;18.08;70.13
56006;BME280;41888;44.696;10.522;2023-04-16T07:15:26;100220.78;;;17.71;72.80
56006;BME280;41888;44.696;10.522;2023-04-16T07:17:52;100222.31;;;17.62;73.26
56006;BME280;41888;44.696;10.522;2023-04-16T07:20:18;100220.97;;;17.11;76.62
56006;BME280;41888;44.696;10.522;2023-04-16T07:22:44;100216.03;;;17.29;75.30
56006;BME280;41888;44.696;10.522;2023-04-16T07:25:11;100211.31;;;17.15;76.03
56006;BME280;41888;44.696;10.522;2023-04-16T07:27:37;100218.28;;;17.11;78.76
56006;BME280;41888;44.696;10.522;2023-04-16T07:30:03;100219.34;;;17.10;81.77
56006;BME280;41888;44.696;10.522;2023-04-16T07:32:30;100224.16;;;17.08;80.86
56006;BME280;41888;44.696;10.522;2023-04-16T07:34:56;100219.75;;;16.97;81.92
56006;BME280;41888;44.696;10.522;2023-04-16T07:37:22;100226.19;;;16.74;83.88
56006;BME280;41888;44.696;10.522;2023-04-16T07:39:49;100222.22;;;16.21;87.91
56006;BME280;41888;44.696;10.522;2023-04-16T07:42:15;100226.38;;;16.51;85.94
56006;BME280;41888;44.696;10.522;2023-04-16T07:44:42;100229.44;;;16.37;87.70
56006;BME280;41888;44.696;10.522;2023-04-16T07:47:08;100243.13;;;16.58;86.38
56006;BME280;41888;44.696;10.522;2023-04-16T07:49:34;100238.88;;;16.23;90.37
56006;BME280;41888;44.696;10.522;2023-04-16T07:52:00;100244.34;;;16.28;91.83
56006;BME280;41888;44.696;10.522;2023-04-16T07:54:26;100241.59;;;16.45;89.44
56006;BME280;41888;44.696;10.522;2023-04-16T07:56:53;100241.22;;;16.36;89.59
56006;BME280;41888;44.696;10.522;2023-04-16T07:59:19;100247.50;;;16.25;91.62
56006;BME280;41888;44.696;10.522;2023-04-16T08:01:45;100239.16;;;16.05;90.15
56006;BME280;41888;44.696;10.522;2023-04-16T08:04:12;100243.53;;;15.94;91.09
56006;BME280;41888;44.696;10.522;2023-04-16T08:06:39;100248.31;;;16.09;89.86
56006;BME280;41888;44.696;10.522;2023-04-16T08:09:05;100252.06;;;15.46;95.47
56006;BME280;41888;44.696;10.522;2023-04-16T08:11:31;100236.84;;;15.07;99.60
56006;BME280;41888;44.696;10.522;2023-04-16T08:13:58;100246.66;;;15.30;97.66
56006;BME280;41888;44.696;10.522;2023-04-16T08:16:24;100256.66;;;15.34;94.88
56006;BME280;41888;44.696;10.522;2023-04-16T08:18:50;100258.84;;;15.49;95.47
56006;BME280;41888;44.696;10.522;2023-04-16T08:21:16;100261.09;;;15.69;94.42
56006;BME280;41888;44.696;10.522;2023-04-16T08:23:42;100265.00;;;15.78;92.13
56006;BME280;41888;44.696;10.522;2023-04-16T08:26:08;100262.63;;;15.65;90.57
56006;BME280;41888;44.696;10.522;2023-04-16T08:28:35;100267.59;;;15.16;94.98
56006;BME280;41888;44.696;10.522;2023-04-16T08:31:01;100275.06;;;15.54;92.73
56006;BME280;41888;44.696;10.522;2023-04-16T08:33:27;100268.09;;;15.70;93.97
56006;BME280;41888;44.696;10.522;2023-04-16T08:35:53;100279.03;;;15.11;87.17
56006;BME280;41888;44.696;10.522;2023-04-16T08:38:19;100284.22;;;14.66;93.71
56006;BME280;41888;44.696;10.522;2023-04-16T08:40:47;100288.63;;;14.96;95.58
56006;BME280;41888;44.696;10.522;2023-04-16T08:43:14;100272.25;;;15.20;92.94
56006;BME280;41888;44.696;10.522;2023-04-16T08:45:41;100277.50;;;14.64;91.50
56006;BME280;41888;44.696;10.522;2023-04-16T08:48:11;100277.56;;;14.80;90.73
56006;BME280;41888;44.696;10.522;2023-04-16T08:50:37;100285.28;;;14.77;90.91
56006;BME280;41888;44.696;10.522;2023-04-16T08:53:05;100282.47;;;14.72;92.88
56006;BME280;41888;44.696;10.522;2023-04-16T08:55:36;100288.22;;;15.15;91.96
56006;BME280;41888;44.696;10.522;2023-04-16T08:58:12;100286.41;;;15.61;90.48
56006;BME280;41888;44.696;10.522;2023-04-16T09:00:39;100292.00;;;15.88;88.19
56006;BME280;41888;44.696;10.522;2023-04-16T09:03:09;100281.59;;;16.08;85.38
56006;BME280;41888;44.696;10.522;2023-04-16T09:05:36;100285.31;;;15.74;83.67
56006;BME280;41888;44.696;10.522;2023-04-16T09:08:03;100280.63;;;15.81;81.02
56006;BME280;41888;44.696;10.522;2023-04-16T09:10:29;100284.25;;;15.46;78.49
56006;BME280;41888;44.696;10.522;2023-04-16T09:12:56;100293.84;;;15.87;82.33
56006;BME280;41888;44.696;10.522;2023-04-16T09:15:23;100295.06;;;15.63;81.40
56006;BME280;41888;44.696;10.522;2023-04-16T09:17:51;100293.31;;;15.85;79.29
56006;BME280;41888;44.696;10.522;2023-04-16T09:20:18;100298.09;;;16.00;79.43
56006;BME280;41888;44.696;10.522;2023-04-16T09:22:44;100302.31;;;16.63;78.73
56006;BME280;41888;44.696;10.522;2023-04-16T09:25:11;100306.41;;;16.48;68.39
56006;BME280;41888;44.696;10.522;2023-04-16T09:27:38;100304.53;;;16.32;70.85
56006;BME280;41888;44.696;10.522;2023-04-16T09:30:27;100301.81;;;16.66;71.40
56006;BME280;41888;44.696;10.522;2023-04-16T09:35:47;100302.75;;;16.38;71.45
56006;BME280;41888;44.696;10.522;2023-04-16T09:38:14;100294.25;;;16.46;66.70
56006;BME280;41888;44.696;10.522;2023-04-16T09:40:41;100291.47;;;16.58;69.26
56006;BME280;41888;44.696;10.522;2023-04-16T09:43:12;100297.09;;;16.56;65.91
56006;BME280;41888;44.696;10.522;2023-04-16T09:45:52;100300.47;;;16.85;68.22
56006;BME280;41888;44.696;10.522;2023-04-16T09:50:55;100299.63;;;17.01;66.45
56006;BME280;41888;44.696;10.522;2023-04-16T09:53:26;100294.53;;;16.11;65.26
56006;BME280;41888;44.696;10.522;2023-04-16T09:58:23;100298.50;;;16.59;63.59
56006;BME280;41888;44.696;10.522;2023-04-16T10:01:22;100295.34;;;16.28;60.63
56006;BME280;41888;44.696;10.522;2023-04-16T10:03:42;100295.44;;;16.33;60.68
56006;BME280;41888;44.696;10.522;2023-04-16T10:08:52;100295.38;;;16.67;56.32
56006;BME280;41888;44.696;10.522;2023-04-16T10:11:19;100303.72;;;17.09;57.48
56006;BME280;41888;44.696;10.522;2023-04-16T10:13:46;100298.75;;;17.17;55.71
56006;BME280;41888;44.696;10.522;2023-04-16T10:16:12;100294.09;;;16.53;55.29
56006;BME280;41888;44.696;10.522;2023-04-16T10:18:41;100301.28;;;16.30;58.15
56006;BME280;41888;44.696;10.522;2023-04-16T10:21:08;100294.34;;;16.68;57.26
56006;BME280;41888;44.696;10.522;2023-04-16T10:23:41;100293.94;;;16.42;57.77
56006;BME280;41888;44.696;10.522;2023-04-16T10:26:08;100298.75;;;17.17;55.67
56006;BME280;41888;44.696;10.522;2023-04-16T10:28:35;100298.16;;;17.15;53.90
56006;BME280;41888;44.696;10.522;2023-04-16T10:31:04;100299.69;;;16.51;55.11
56006;BME280;41888;44.696;10.522;2023-04-16T10:33:38;100299.63;;;16.63;55.62
56006;BME280;41888;44.696;10.522;2023-04-16T10:36:10;100297.47;;;16.81;54.00
56006;BME280;41888;44.696;10.522;2023-04-16T10:38:47;100295.53;;;17.20;53.46
56006;BME280;41888;44.696;10.522;2023-04-16T10:41:14;100287.47;;;16.99;52.91
56006;BME280;41888;44.696;10.522;2023-04-16T10:43:46;100293.81;;;16.71;54.07
56006;BME280;41888;44.696;10.522;2023-04-16T10:48:54;100289.28;;;16.93;52.17
56006;BME280;41888;44.696;10.522;2023-04-16T10:51:26;100273.84;;;17.05;52.11
56006;BME280;41888;44.696;10.522;2023-04-16T10:53:54;100277.78;;;16.98;52.55
56006;BME280;41888;44.696;10.522;2023-04-16T10:56:25;100277.59;;;17.04;52.06
56006;BME280;41888;44.696;10.522;2023-04-16T10:58:53;100277.16;;;16.69;52.20
56006;BME280;41888;44.696;10.522;2023-04-16T11:01:36;100274.09;;;17.04;53.06
56006;BME280;41888;44.696;10.522;2023-04-16T11:09:57;100276.72;;;16.77;51.15
56006;BME280;41888;44.696;10.522;2023-04-16T11:12:39;100283.84;;;16.88;51.10
56006;BME280;41888;44.696;10.522;2023-04-16T11:17:39;100270.22;;;16.95;50.31
56006;BME280;41888;44.696;10.522;2023-04-16T11:22:36;100264.97;;;16.83;51.05
56006;BME280;41888;44.696;10.522;2023-04-16T11:25:03;100270.09;;;17.28;49.91
56006;BME280;41888;44.696;10.522;2023-04-16T11:27:30;100263.50;;;17.41;51.22
56006;BME280;41888;44.696;10.522;2023-04-16T11:30:07;100263.91;;;17.54;51.12
56006;BME280;41888;44.696;10.522;2023-04-16T11:32:37;100262.41;;;17.95;49.04
56006;BME280;41888;44.696;10.522;2023-04-16T11:35:15;100262.38;;;17.90;48.70
56006;BME280;41888;44.696;10.522;2023-04-16T11:37:42;100262.63;;;17.89;45.62
56006;BME280;41888;44.696;10.522;2023-04-16T11:40:09;100260.78;;;17.14;46.68
56006;BME280;41888;44.696;10.522;2023-04-16T11:42:37;100267.28;;;16.74;47.84
56006;BME280;41888;44.696;10.522;2023-04-16T11:45:07;100252.56;;;17.25;47.10
56006;BME280;41888;44.696;10.522;2023-04-16T11:47:42;100256.00;;;17.43;46.08
56006;BME280;41888;44.696;10.522;2023-04-16T11:50:25;100245.94;;;17.33;47.49
56006;BME280;41888;44.696;10.522;2023-04-16T11:52:53;100244.22;;;17.22;47.04
56006;BME280;41888;44.696;10.522;2023-04-16T11:55:20;100242.16;;;16.64;48.60
56006;BME280;41888;44.696;10.522;2023-04-16T11:57:47;100243.59;;;17.15;49.50
56006;BME280;41888;44.696;10.522;2023-04-16T12:00:14;100240.97;;;17.47;49.80
56006;BME280;41888;44.696;10.522;2023-04-16T12:02:58;100240.59;;;17.11;46.47
56006;BME280;41888;44.696;10.522;2023-04-16T12:05:33;100244.59;;;17.89;46.69
56006;BME280;41888;44.696;10.522;2023-04-16T12:08:05;100237.81;;;18.13;46.03
56006;BME280;41888;44.696;10.522;2023-04-16T12:10:33;100247.69;;;18.45;45.39
56006;BME280;41888;44.696;10.522;2023-04-16T12:13:10;100240.97;;;18.05;45.60
56006;BME280;41888;44.696;10.522;2023-04-16T12:15:48;100240.16;;;18.05;45.33
56006;BME280;41888;44.696;10.522;2023-04-16T12:18:15;100222.06;;;18.42;46.77
56006;BME280;41888;44.696;10.522;2023-04-16T12:20:42;100235.44;;;18.69;46.59
56006;BME280;41888;44.696;10.522;2023-04-16T12:23:21;100228.91;;;17.76;45.80
56006;BME280;41888;44.696;10.522;2023-04-16T12:25:47;100229.56;;;17.93;45.80
56006;BME280;41888;44.696;10.522;2023-04-16T12:28:25;100219.44;;;17.47;46.57
56006;BME280;41888;44.696;10.522;2023-04-16T12:30:51;100220.19;;;18.43;44.73
56006;BME280;41888;44.696;10.522;2023-04-16T12:33:18;100219.97;;;19.12;44.09
56006;BME280;41888;44.696;10.522;2023-04-16T12:35:46;100225.31;;;18.91;44.31
56006;BME280;41888;44.696;10.522;2023-04-16T12:38:12;100222.09;;;18.47;43.85
56006;BME280;41888;44.696;10.522;2023-04-16T12:40:40;100219.38;;;18.00;45.04
56006;BME280;41888;44.696;10.522;2023-04-16T12:43:06;100222.22;;;18.68;43.66
56006;BME280;41888;44.696;10.522;2023-04-16T12:45:34;100210.09;;;18.65;45.45
56006;BME280;41888;44.696;10.522;2023-04-16T12:48:00;100206.44;;;18.39;44.72
56006;BME280;41888;44.696;10.522;2023-04-16T12:50:26;100208.34;;;18.44;43.69
56006;BME280;41888;44.696;10.522;2023-04-16T12:52:57;100207.31;;;18.50;43.29
56006;BME280;41888;44.696;10.522;2023-04-16T12:55:23;100203.91;;;18.70;42.19
56006;BME280;41888;44.696;10.522;2023-04-16T12:57:50;100207.09;;;18.56;43.00
56006;BME280;41888;44.696;10.522;2023-04-16T13:00:18;100201.63;;;19.09;43.93
56006;BME280;41888;44.696;10.522;2023-04-16T13:02:45;100201.59;;;18.98;45.22
56006;BME280;41888;44.696;10.522;2023-04-16T13:05:11;100209.63;;;18.83;44.83